Česky Dansk Deutsch English Español Suomi Français Magyar Italiano Nederlands norsk Polski Português svenska Türkçe

 

Het Weer

Caen (Frankrijk)

22:00, 17 augustus 2016 (GMT)

NWNNE
WE
SWSSE
Home            
Caen La Heve Cherbourg / Maupertus Alencon Vittefleur / St. Vale Rouen Toussus Le Noble Evreux Jersey Airport Dinard Alderney / Channel Island Le Mans Rennes Guernsey Airport Chartres Shoreham Airport Chateaudun Angers Beauvais Saint-Brieuc Abbeville Villacoublay Southampton / Weather Centre

Om een weerknop op uw website of weblog te plaatsen, copieer onderstaande code en plak die in uw pagina. In het eerste vakje staat HTML-code, in het tweede vakje UBB-code.


Add to Google

Details

Wind speed:3 bf, 9 kn, 4.6 m/s, 10.4 miles/h, 16.7 km/h
Wind direction:W, 280°
Visibility:Greater than 10000 m, 10 km, 32800 ft, 6.2 miles
Temperature:20°C, 68°F
Dew-point:16°C, 61°F
Atmospheric pressure:1011 hPa, 758.3 mmHg, 29.85 inHg, 0.998 atm
Relative humidity:77.8 %
METAR:LFRK 172200Z AUTO 28009KT 9999 CB 20/16 Q1011

Snelkoppelingen

Actuele weersinformatie van de hele wereld. Voeg locaties toe met het plus (+) symbool. Deze snelkoppelingen kunnen worden toegevoegd aan Google.

Lid van de Technetium groep

website free tracking
StatCounter NetStat W3C Validator

14-04-2021 10:07:52
astro.technetium.be money.technetium.be phote.technetium.be tafeltennistafel.technetium.be www.ligfiets.net